sensor_id;sensor_type;location;lat;lon;timestamp;pressure;altitude;pressure_sealevel;temperature;humidity
75192;BME280;63771;52.580;9.734;2023-06-22T00:02:05;101521.00;;;19.96;70.27
75192;BME280;63771;52.580;9.734;2023-06-22T00:04:30;101517.06;;;19.88;70.40
75192;BME280;63771;52.580;9.734;2023-06-22T00:06:55;101519.41;;;19.83;70.53
75192;BME280;63771;52.580;9.734;2023-06-22T00:09:21;101515.75;;;19.79;70.76
75192;BME280;63771;52.580;9.734;2023-06-22T00:11:46;101512.63;;;19.85;70.27
75192;BME280;63771;52.580;9.734;2023-06-22T00:14:11;101519.59;;;19.86;69.86
75192;BME280;63771;52.580;9.734;2023-06-22T00:16:37;101517.69;;;19.84;70.04
75192;BME280;63771;52.580;9.734;2023-06-22T00:19:02;101523.00;;;19.85;70.16
75192;BME280;63771;52.580;9.734;2023-06-22T00:21:29;101525.47;;;19.84;70.23
75192;BME280;63771;52.580;9.734;2023-06-22T00:23:54;101528.53;;;19.76;70.75
75192;BME280;63771;52.580;9.734;2023-06-22T00:26:20;101524.63;;;19.68;71.27
75192;BME280;63771;52.580;9.734;2023-06-22T00:28:46;101530.81;;;19.57;71.33
75192;BME280;63771;52.580;9.734;2023-06-22T00:31:11;101533.31;;;19.55;71.06
75192;BME280;63771;52.580;9.734;2023-06-22T00:33:36;101540.66;;;19.63;70.72
75192;BME280;63771;52.580;9.734;2023-06-22T00:36:02;101543.97;;;19.60;70.95
75192;BME280;63771;52.580;9.734;2023-06-22T00:38:28;101534.19;;;19.56;70.92
75192;BME280;63771;52.580;9.734;2023-06-22T00:40:53;101534.19;;;19.56;70.68
75192;BME280;63771;52.580;9.734;2023-06-22T00:43:19;101543.25;;;19.63;71.04
75192;BME280;63771;52.580;9.734;2023-06-22T00:45:44;101536.63;;;19.53;71.48
75192;BME280;63771;52.580;9.734;2023-06-22T00:48:11;101538.06;;;19.48;71.37
75192;BME280;63771;52.580;9.734;2023-06-22T00:50:37;101540.44;;;19.45;71.55
75192;BME280;63771;52.580;9.734;2023-06-22T00:53:07;101537.78;;;19.43;71.78
75192;BME280;63771;52.580;9.734;2023-06-22T00:55:44;101538.47;;;19.41;71.52
75192;BME280;63771;52.580;9.734;2023-06-22T00:58:11;101531.59;;;19.41;71.89
75192;BME280;63771;52.580;9.734;2023-06-22T01:00:37;101529.91;;;19.42;71.36
75192;BME280;63771;52.580;9.734;2023-06-22T01:03:04;101526.41;;;19.41;71.96
75192;BME280;63771;52.580;9.734;2023-06-22T01:05:31;101517.31;;;19.33;72.13
75192;BME280;63771;52.580;9.734;2023-06-22T01:08:22;101518.56;;;19.25;72.65
75192;BME280;63771;52.580;9.734;2023-06-22T01:10:55;101510.63;;;19.22;72.70
75192;BME280;63771;52.580;9.734;2023-06-22T01:13:35;101504.09;;;19.14;73.28
75192;BME280;63771;52.580;9.734;2023-06-22T01:16:10;101508.97;;;19.09;73.65
75192;BME280;63771;52.580;9.734;2023-06-22T01:18:40;101506.84;;;19.02;73.55
75192;BME280;63771;52.580;9.734;2023-06-22T01:21:06;101509.84;;;18.95;73.98
75192;BME280;63771;52.580;9.734;2023-06-22T01:23:49;101519.81;;;18.89;73.51
75192;BME280;63771;52.580;9.734;2023-06-22T01:26:22;101513.75;;;18.88;74.16
75192;BME280;63771;52.580;9.734;2023-06-22T01:28:54;101512.69;;;18.85;74.38
75192;BME280;63771;52.580;9.734;2023-06-22T01:31:23;101508.72;;;18.76;74.79
75192;BME280;63771;52.580;9.734;2023-06-22T01:33:51;101502.59;;;18.74;74.90
75192;BME280;63771;52.580;9.734;2023-06-22T01:36:18;101497.59;;;18.64;74.94
75192;BME280;63771;52.580;9.734;2023-06-22T01:38:45;101491.13;;;18.58;75.21
75192;BME280;63771;52.580;9.734;2023-06-22T01:41:12;101483.72;;;18.49;75.59
75192;BME280;63771;52.580;9.734;2023-06-22T01:43:37;101486.50;;;18.52;74.93
75192;BME280;63771;52.580;9.734;2023-06-22T01:46:03;101486.69;;;18.55;74.89
75192;BME280;63771;52.580;9.734;2023-06-22T01:48:30;101488.25;;;18.53;75.29
75192;BME280;63771;52.580;9.734;2023-06-22T01:50:56;101493.44;;;18.53;74.96
75192;BME280;63771;52.580;9.734;2023-06-22T01:53:22;101484.91;;;18.54;74.39
75192;BME280;63771;52.580;9.734;2023-06-22T01:55:48;101495.03;;;18.51;75.09
75192;BME280;63771;52.580;9.734;2023-06-22T01:58:13;101496.81;;;18.52;74.87
75192;BME280;63771;52.580;9.734;2023-06-22T02:00:40;101489.56;;;18.60;74.51
75192;BME280;63771;52.580;9.734;2023-06-22T02:03:14;101489.19;;;18.54;74.85
75192;BME280;63771;52.580;9.734;2023-06-22T02:06:06;101492.16;;;18.46;75.52
75192;BME280;63771;52.580;9.734;2023-06-22T02:08:41;101489.13;;;18.39;75.77
75192;BME280;63771;52.580;9.734;2023-06-22T02:11:07;101498.38;;;18.35;75.84
75192;BME280;63771;52.580;9.734;2023-06-22T02:13:33;101491.31;;;18.33;75.84
75192;BME280;63771;52.580;9.734;2023-06-22T02:16:00;101496.28;;;18.30;75.47
75192;BME280;63771;52.580;9.734;2023-06-22T02:18:25;101499.47;;;18.25;75.98
75192;BME280;63771;52.580;9.734;2023-06-22T02:20:51;101495.69;;;18.20;76.19
75192;BME280;63771;52.580;9.734;2023-06-22T02:23:17;101503.06;;;18.14;76.38
75192;BME280;63771;52.580;9.734;2023-06-22T02:25:43;101501.56;;;18.18;75.15
75192;BME280;63771;52.580;9.734;2023-06-22T02:28:09;101500.47;;;18.28;75.19
75192;BME280;63771;52.580;9.734;2023-06-22T02:30:35;101501.66;;;18.19;75.55
75192;BME280;63771;52.580;9.734;2023-06-22T02:33:00;101507.34;;;18.14;76.25
75192;BME280;63771;52.580;9.734;2023-06-22T02:35:27;101512.50;;;18.14;75.63
75192;BME280;63771;52.580;9.734;2023-06-22T02:37:56;101506.53;;;18.15;75.55
75192;BME280;63771;52.580;9.734;2023-06-22T02:40:21;101506.44;;;18.13;75.84
75192;BME280;63771;52.580;9.734;2023-06-22T02:42:47;101511.63;;;18.13;75.87
75192;BME280;63771;52.580;9.734;2023-06-22T02:45:12;101502.16;;;18.14;75.21
75192;BME280;63771;52.580;9.734;2023-06-22T02:47:37;101506.81;;;18.06;76.10
75192;BME280;63771;52.580;9.734;2023-06-22T02:50:03;101513.59;;;18.04;76.46
75192;BME280;63771;52.580;9.734;2023-06-22T02:52:28;101511.41;;;17.97;76.61
75192;BME280;63771;52.580;9.734;2023-06-22T02:54:53;101515.78;;;17.98;76.36
75192;BME280;63771;52.580;9.734;2023-06-22T02:57:19;101513.13;;;17.96;76.01
75192;BME280;63771;52.580;9.734;2023-06-22T02:59:44;101520.75;;;17.95;76.60
75192;BME280;63771;52.580;9.734;2023-06-22T03:02:09;101522.72;;;17.99;75.96
75192;BME280;63771;52.580;9.734;2023-06-22T03:04:36;101530.69;;;18.02;75.84
75192;BME280;63771;52.580;9.734;2023-06-22T03:07:02;101538.44;;;18.02;75.66
75192;BME280;63771;52.580;9.734;2023-06-22T03:09:28;101529.69;;;18.00;76.26
75192;BME280;63771;52.580;9.734;2023-06-22T03:11:56;101535.47;;;17.96;76.59
75192;BME280;63771;52.580;9.734;2023-06-22T03:14:22;101532.88;;;17.96;76.09
75192;BME280;63771;52.580;9.734;2023-06-22T03:16:47;101534.66;;;17.97;76.11
75192;BME280;63771;52.580;9.734;2023-06-22T03:19:13;101538.03;;;17.96;76.47
75192;BME280;63771;52.580;9.734;2023-06-22T03:21:39;101539.53;;;17.92;76.52
75192;BME280;63771;52.580;9.734;2023-06-22T03:24:05;101535.84;;;17.89;77.01
75192;BME280;63771;52.580;9.734;2023-06-22T03:26:31;101538.25;;;17.86;77.45
75192;BME280;63771;52.580;9.734;2023-06-22T03:28:56;101547.25;;;17.79;77.65
75192;BME280;63771;52.580;9.734;2023-06-22T03:31:22;101546.25;;;17.77;77.57
75192;BME280;63771;52.580;9.734;2023-06-22T03:33:49;101557.25;;;17.74;77.88
75192;BME280;63771;52.580;9.734;2023-06-22T03:36:15;101547.53;;;17.70;77.97
75192;BME280;63771;52.580;9.734;2023-06-22T03:38:49;101549.66;;;17.64;78.39
75192;BME280;63771;52.580;9.734;2023-06-22T03:41:14;101549.00;;;17.67;78.06
75192;BME280;63771;52.580;9.734;2023-06-22T03:43:40;101546.41;;;17.67;77.43
75192;BME280;63771;52.580;9.734;2023-06-22T03:46:05;101544.94;;;17.70;77.75
75192;BME280;63771;52.580;9.734;2023-06-22T03:48:31;101546.72;;;17.71;77.48
75192;BME280;63771;52.580;9.734;2023-06-22T03:50:56;101548.09;;;17.66;78.05
75192;BME280;63771;52.580;9.734;2023-06-22T03:53:21;101539.41;;;17.78;76.86
75192;BME280;63771;52.580;9.734;2023-06-22T03:55:52;101532.84;;;17.83;76.23
75192;BME280;63771;52.580;9.734;2023-06-22T03:58:20;101544.88;;;17.82;77.56
75192;BME280;63771;52.580;9.734;2023-06-22T04:00:47;101540.13;;;17.88;76.85
75192;BME280;63771;52.580;9.734;2023-06-22T04:03:13;101547.56;;;17.84;77.47
75192;BME280;63771;52.580;9.734;2023-06-22T04:05:39;101534.94;;;17.88;76.93
75192;BME280;63771;52.580;9.734;2023-06-22T04:08:05;101538.03;;;17.96;76.01
75192;BME280;63771;52.580;9.734;2023-06-22T04:10:30;101531.88;;;17.94;77.00
75192;BME280;63771;52.580;9.734;2023-06-22T04:12:56;101535.47;;;17.96;76.72
75192;BME280;63771;52.580;9.734;2023-06-22T04:15:21;101534.66;;;17.97;76.24
75192;BME280;63771;52.580;9.734;2023-06-22T04:17:47;101537.13;;;17.95;75.86
75192;BME280;63771;52.580;9.734;2023-06-22T04:20:12;101538.13;;;17.97;76.61
75192;BME280;63771;52.580;9.734;2023-06-22T04:22:37;101542.59;;;18.00;76.60
75192;BME280;63771;52.580;9.734;2023-06-22T04:25:03;101542.00;;;18.04;76.33
75192;BME280;63771;52.580;9.734;2023-06-22T04:27:28;101544.50;;;18.03;75.90
75192;BME280;63771;52.580;9.734;2023-06-22T04:29:54;101549.56;;;18.01;76.46
75192;BME280;63771;52.580;9.734;2023-06-22T04:32:19;101547.16;;;18.04;76.25
75192;BME280;63771;52.580;9.734;2023-06-22T04:34:44;101552.16;;;18.01;76.89
75192;BME280;63771;52.580;9.734;2023-06-22T04:37:09;101545.28;;;18.02;77.11
75192;BME280;63771;52.580;9.734;2023-06-22T04:39:40;101533.06;;;18.12;76.00
75192;BME280;63771;52.580;9.734;2023-06-22T04:42:05;101540.31;;;18.18;76.02
75192;BME280;63771;52.580;9.734;2023-06-22T04:44:31;101543.97;;;18.21;76.27
75192;BME280;63771;52.580;9.734;2023-06-22T04:46:58;101543.09;;;18.34;75.78
75192;BME280;63771;52.580;9.734;2023-06-22T04:49:29;101548.56;;;18.39;75.20
75192;BME280;63771;52.580;9.734;2023-06-22T04:52:05;101545.63;;;18.47;74.77
75192;BME280;63771;52.580;9.734;2023-06-22T04:54:31;101548.34;;;18.49;74.83
75192;BME280;63771;52.580;9.734;2023-06-22T04:57:00;101549.31;;;18.51;75.00
75192;BME280;63771;52.580;9.734;2023-06-22T04:59:30;101550.88;;;18.62;74.57
75192;BME280;63771;52.580;9.734;2023-06-22T05:02:00;101538.75;;;18.61;74.43
75192;BME280;63771;52.580;9.734;2023-06-22T05:04:27;101541.25;;;18.73;73.58
75192;BME280;63771;52.580;9.734;2023-06-22T05:06:59;101546.72;;;18.77;73.68
75192;BME280;63771;52.580;9.734;2023-06-22T05:09:28;101536.00;;;18.71;73.97
75192;BME280;63771;52.580;9.734;2023-06-22T05:11:53;101537.38;;;18.66;74.66
75192;BME280;63771;52.580;9.734;2023-06-22T05:14:19;101540.19;;;18.69;74.79
75192;BME280;63771;52.580;9.734;2023-06-22T05:16:45;101533.50;;;18.73;74.30
75192;BME280;63771;52.580;9.734;2023-06-22T05:19:11;101533.88;;;18.79;74.24
75192;BME280;63771;52.580;9.734;2023-06-22T05:21:37;101537.16;;;18.76;74.36
75192;BME280;63771;52.580;9.734;2023-06-22T05:24:02;101533.19;;;18.82;74.37
75192;BME280;63771;52.580;9.734;2023-06-22T05:26:30;101527.47;;;18.87;74.05
75192;BME280;63771;52.580;9.734;2023-06-22T05:28:56;101526.28;;;18.95;73.66
75192;BME280;63771;52.580;9.734;2023-06-22T05:31:22;101522.88;;;18.96;73.90
75192;BME280;63771;52.580;9.734;2023-06-22T05:33:48;101521.34;;;19.00;73.65
75192;BME280;63771;52.580;9.734;2023-06-22T05:36:14;101523.63;;;19.09;73.53
75192;BME280;63771;52.580;9.734;2023-06-22T05:38:41;101512.81;;;19.16;73.41
75192;BME280;63771;52.580;9.734;2023-06-22T05:41:07;101515.97;;;19.25;73.08
75192;BME280;63771;52.580;9.734;2023-06-22T05:43:32;101518.22;;;19.34;73.23
75192;BME280;63771;52.580;9.734;2023-06-22T05:45:59;101511.69;;;19.40;73.26
75192;BME280;63771;52.580;9.734;2023-06-22T05:48:25;101508.56;;;19.46;72.52
75192;BME280;63771;52.580;9.734;2023-06-22T05:50:50;101505.56;;;19.53;71.77
75192;BME280;63771;52.580;9.734;2023-06-22T05:53:15;101506.72;;;19.58;71.58
75192;BME280;63771;52.580;9.734;2023-06-22T05:55:41;101508.88;;;19.65;70.86
75192;BME280;63771;52.580;9.734;2023-06-22T05:58:07;101511.81;;;19.71;70.54
75192;BME280;63771;52.580;9.734;2023-06-22T06:00:32;101511.13;;;19.74;70.72
75192;BME280;63771;52.580;9.734;2023-06-22T06:02:58;101513.19;;;19.79;71.16
75192;BME280;63771;52.580;9.734;2023-06-22T06:05:29;101510.03;;;19.85;71.52
75192;BME280;63771;52.580;9.734;2023-06-22T06:07:55;101509.31;;;19.88;70.28
75192;BME280;63771;52.580;9.734;2023-06-22T06:10:20;101506.97;;;19.92;69.28
75192;BME280;63771;52.580;9.734;2023-06-22T06:12:45;101511.81;;;20.01;68.92
75192;BME280;63771;52.580;9.734;2023-06-22T06:15:11;101508.66;;;20.06;69.02
75192;BME280;63771;52.580;9.734;2023-06-22T06:17:45;101504.72;;;20.13;70.00
75192;BME280;63771;52.580;9.734;2023-06-22T06:20:11;101503.59;;;20.24;67.83
75192;BME280;63771;52.580;9.734;2023-06-22T06:22:37;101505.63;;;20.30;67.57
75192;BME280;63771;52.580;9.734;2023-06-22T06:25:02;101493.75;;;20.33;68.28
75192;BME280;63771;52.580;9.734;2023-06-22T06:27:27;101503.63;;;20.41;68.24
75192;BME280;63771;52.580;9.734;2023-06-22T06:29:54;101496.03;;;20.44;68.56
75192;BME280;63771;52.580;9.734;2023-06-22T06:32:19;101487.66;;;20.48;68.01
75192;BME280;63771;52.580;9.734;2023-06-22T06:34:44;101489.75;;;20.55;67.52
75192;BME280;63771;52.580;9.734;2023-06-22T06:37:10;101480.53;;;20.60;67.87
75192;BME280;63771;52.580;9.734;2023-06-22T06:39:35;101488.63;;;20.66;67.98
75192;BME280;63771;52.580;9.734;2023-06-22T06:42:00;101487.16;;;20.71;67.77
75192;BME280;63771;52.580;9.734;2023-06-22T06:44:26;101484.25;;;20.81;66.56
75192;BME280;63771;52.580;9.734;2023-06-22T06:46:51;101485.31;;;20.85;67.12
75192;BME280;63771;52.580;9.734;2023-06-22T06:49:16;101482.22;;;20.92;67.00
75192;BME280;63771;52.580;9.734;2023-06-22T06:51:42;101479.22;;;21.01;67.77
75192;BME280;63771;52.580;9.734;2023-06-22T06:54:07;101474.59;;;21.11;65.88
75192;BME280;63771;52.580;9.734;2023-06-22T06:56:32;101467.94;;;21.17;66.67
75192;BME280;63771;52.580;9.734;2023-06-22T06:58:58;101469.94;;;21.22;66.21
75192;BME280;63771;52.580;9.734;2023-06-22T07:01:24;101471.28;;;21.30;66.20
75192;BME280;63771;52.580;9.734;2023-06-22T07:03:49;101475.13;;;21.39;66.05
75192;BME280;63771;52.580;9.734;2023-06-22T07:06:15;101475.44;;;21.45;66.55
75192;BME280;63771;52.580;9.734;2023-06-22T07:08:41;101477.66;;;21.55;66.08
75192;BME280;63771;52.580;9.734;2023-06-22T07:11:07;101474.72;;;21.65;64.34
75192;BME280;63771;52.580;9.734;2023-06-22T07:13:33;101480.19;;;21.71;64.30
75192;BME280;63771;52.580;9.734;2023-06-22T07:15:58;101472.94;;;21.82;62.86
75192;BME280;63771;52.580;9.734;2023-06-22T07:18:24;101471.66;;;21.92;62.43
75192;BME280;63771;52.580;9.734;2023-06-22T07:20:49;101466.75;;;21.98;62.59
75192;BME280;63771;52.580;9.734;2023-06-22T07:23:14;101471.44;;;22.05;62.88
75192;BME280;63771;52.580;9.734;2023-06-22T07:25:40;101464.84;;;22.11;62.47
75192;BME280;63771;52.580;9.734;2023-06-22T07:30:33;101467.28;;;22.26;62.47
75192;BME280;63771;52.580;9.734;2023-06-22T07:32:59;101470.03;;;22.29;62.78
75192;BME280;63771;52.580;9.734;2023-06-22T07:35:29;101459.31;;;22.41;61.82
75192;BME280;63771;52.580;9.734;2023-06-22T07:37:54;101452.66;;;22.48;62.12
75192;BME280;63771;52.580;9.734;2023-06-22T07:40:19;101451.31;;;22.56;62.43
75192;BME280;63771;52.580;9.734;2023-06-22T07:42:45;101455.00;;;22.61;63.17
75192;BME280;63771;52.580;9.734;2023-06-22T07:45:13;101458.97;;;22.72;63.04
75192;BME280;63771;52.580;9.734;2023-06-22T07:47:38;101451.59;;;22.81;63.12
75192;BME280;63771;52.580;9.734;2023-06-22T07:50:04;101454.59;;;22.90;62.82
75192;BME280;63771;52.580;9.734;2023-06-22T07:52:30;101448.16;;;23.02;61.27
75192;BME280;63771;52.580;9.734;2023-06-22T07:54:55;101450.94;;;23.06;61.86
75192;BME280;63771;52.580;9.734;2023-06-22T07:57:21;101459.16;;;23.15;61.86
75192;BME280;63771;52.580;9.734;2023-06-22T07:59:46;101455.34;;;23.28;60.16
75192;BME280;63771;52.580;9.734;2023-06-22T08:02:12;101449.34;;;23.29;60.65
75192;BME280;63771;52.580;9.734;2023-06-22T08:04:37;101444.44;;;23.37;61.03
75192;BME280;63771;52.580;9.734;2023-06-22T08:07:03;101447.25;;;23.41;61.36
75192;BME280;63771;52.580;9.734;2023-06-22T08:09:30;101441.44;;;23.49;59.56
75192;BME280;63771;52.580;9.734;2023-06-22T08:11:55;101435.53;;;23.53;60.33
75192;BME280;63771;52.580;9.734;2023-06-22T08:14:22;101448.00;;;23.60;60.77
75192;BME280;63771;52.580;9.734;2023-06-22T08:16:48;101450.94;;;23.67;60.25
75192;BME280;63771;52.580;9.734;2023-06-22T08:19:13;101451.25;;;23.75;58.82
75192;BME280;63771;52.580;9.734;2023-06-22T08:21:38;101449.59;;;23.77;59.48
75192;BME280;63771;52.580;9.734;2023-06-22T08:24:04;101445.56;;;23.85;58.27
75192;BME280;63771;52.580;9.734;2023-06-22T08:26:29;101443.22;;;23.91;59.47
75192;BME280;63771;52.580;9.734;2023-06-22T08:28:55;101431.34;;;24.00;57.61
75192;BME280;63771;52.580;9.734;2023-06-22T08:31:20;101438.28;;;23.99;58.41
75192;BME280;63771;52.580;9.734;2023-06-22T08:33:45;101444.44;;;24.01;58.32
75192;BME280;63771;52.580;9.734;2023-06-22T08:36:11;101439.50;;;24.07;58.50
75192;BME280;63771;52.580;9.734;2023-06-22T08:38:38;101432.59;;;24.09;58.93
75192;BME280;63771;52.580;9.734;2023-06-22T08:41:03;101435.50;;;24.17;58.83
75192;BME280;63771;52.580;9.734;2023-06-22T08:43:29;101442.03;;;24.28;58.19
75192;BME280;63771;52.580;9.734;2023-06-22T08:45:54;101428.41;;;24.35;57.55
75192;BME280;63771;52.580;9.734;2023-06-22T08:48:19;101432.91;;;24.39;57.48
75192;BME280;63771;52.580;9.734;2023-06-22T08:50:45;101432.44;;;24.50;57.13
75192;BME280;63771;52.580;9.734;2023-06-22T08:53:10;101428.97;;;24.51;57.56
75192;BME280;63771;52.580;9.734;2023-06-22T08:55:35;101431.75;;;24.55;56.98
75192;BME280;63771;52.580;9.734;2023-06-22T08:58:01;101422.25;;;24.57;57.76
75192;BME280;63771;52.580;9.734;2023-06-22T09:00:26;101416.38;;;24.63;57.52
75192;BME280;63771;52.580;9.734;2023-06-22T09:02:53;101420.88;;;24.67;58.24
75192;BME280;63771;52.580;9.734;2023-06-22T09:05:24;101411.47;;;24.72;58.89
75192;BME280;63771;52.580;9.734;2023-06-22T09:07:50;101416.06;;;24.79;57.71
75192;BME280;63771;52.580;9.734;2023-06-22T09:10:15;101416.34;;;24.87;58.68
75192;BME280;63771;52.580;9.734;2023-06-22T09:12:43;101417.44;;;24.93;59.31
75192;BME280;63771;52.580;9.734;2023-06-22T09:15:09;101412.50;;;25.01;59.16
75192;BME280;63771;52.580;9.734;2023-06-22T09:17:35;101418.94;;;25.11;59.08
75192;BME280;63771;52.580;9.734;2023-06-22T09:20:01;101411.34;;;25.17;59.87
75192;BME280;63771;52.580;9.734;2023-06-22T09:22:28;101409.13;;;25.29;59.98
75192;BME280;63771;52.580;9.734;2023-06-22T09:24:55;101399.03;;;25.40;57.57
75192;BME280;63771;52.580;9.734;2023-06-22T09:27:21;101398.34;;;25.45;56.17
75192;BME280;63771;52.580;9.734;2023-06-22T09:29:47;101399.41;;;25.52;56.98
75192;BME280;63771;52.580;9.734;2023-06-22T09:32:12;101391.72;;;25.57;57.66
75192;BME280;63771;52.580;9.734;2023-06-22T09:34:38;101397.97;;;25.62;58.12
75192;BME280;63771;52.580;9.734;2023-06-22T09:37:03;101389.41;;;25.66;57.88
75192;BME280;63771;52.580;9.734;2023-06-22T09:39:29;101378.19;;;25.70;55.67
75192;BME280;63771;52.580;9.734;2023-06-22T09:41:54;101387.00;;;25.73;54.86
75192;BME280;63771;52.580;9.734;2023-06-22T09:44:19;101379.25;;;25.75;55.08
75192;BME280;63771;52.580;9.734;2023-06-22T09:46:45;101368.06;;;25.79;55.85
75192;BME280;63771;52.580;9.734;2023-06-22T09:49:10;101375.06;;;25.80;56.43
75192;BME280;63771;52.580;9.734;2023-06-22T09:51:35;101366.47;;;25.84;57.26
75192;BME280;63771;52.580;9.734;2023-06-22T09:54:01;101372.66;;;25.88;56.71
75192;BME280;63771;52.580;9.734;2023-06-22T09:56:26;101380.75;;;25.95;53.49
75192;BME280;63771;52.580;9.734;2023-06-22T09:58:53;101373.84;;;25.97;54.60
75192;BME280;63771;52.580;9.734;2023-06-22T10:01:18;101366.03;;;25.99;55.07
75192;BME280;63771;52.580;9.734;2023-06-22T10:03:45;101364.34;;;26.01;55.32
75192;BME280;63771;52.580;9.734;2023-06-22T10:06:11;101373.16;;;26.05;55.57
75192;BME280;63771;52.580;9.734;2023-06-22T10:08:36;101368.03;;;26.08;55.39
75192;BME280;63771;52.580;9.734;2023-06-22T10:11:03;101362.91;;;26.11;52.81
75192;BME280;63771;52.580;9.734;2023-06-22T10:13:28;101355.94;;;26.11;54.55
75192;BME280;63771;52.580;9.734;2023-06-22T10:15:54;101360.47;;;26.17;55.17
75192;BME280;63771;52.580;9.734;2023-06-22T10:18:19;101363.06;;;26.17;55.52
75192;BME280;63771;52.580;9.734;2023-06-22T10:20:48;101365.84;;;26.23;56.48
75192;BME280;63771;52.580;9.734;2023-06-22T10:23:16;101357.28;;;26.28;56.60
75192;BME280;63771;52.580;9.734;2023-06-22T10:25:41;101354.81;;;26.33;56.89
75192;BME280;63771;52.580;9.734;2023-06-22T10:28:07;101355.78;;;26.37;56.57
75192;BME280;63771;52.580;9.734;2023-06-22T10:30:32;101356.84;;;26.42;56.37
75192;BME280;63771;52.580;9.734;2023-06-22T10:32:57;101357.78;;;26.45;56.47
75192;BME280;63771;52.580;9.734;2023-06-22T10:35:23;101349.28;;;26.52;56.15
75192;BME280;63771;52.580;9.734;2023-06-22T10:37:48;101337.19;;;26.58;55.91
75192;BME280;63771;52.580;9.734;2023-06-22T10:40:14;101339.03;;;26.62;55.52
75192;BME280;63771;52.580;9.734;2023-06-22T10:42:40;101337.34;;;26.64;55.38
75192;BME280;63771;52.580;9.734;2023-06-22T10:45:07;101346.22;;;26.69;55.23
75192;BME280;63771;52.580;9.734;2023-06-22T10:47:32;101340.97;;;26.69;55.38
75192;BME280;63771;52.580;9.734;2023-06-22T10:49:58;101339.28;;;26.71;52.91
75192;BME280;63771;52.580;9.734;2023-06-22T10:52:23;101332.28;;;26.70;53.90
75192;BME280;63771;52.580;9.734;2023-06-22T10:54:48;101328.78;;;26.71;53.00
75192;BME280;63771;52.580;9.734;2023-06-22T10:57:14;101326.22;;;26.72;53.73
75192;BME280;63771;52.580;9.734;2023-06-22T10:59:39;101328.88;;;26.74;54.77
75192;BME280;63771;52.580;9.734;2023-06-22T11:02:05;101320.19;;;26.75;55.46
75192;BME280;63771;52.580;9.734;2023-06-22T11:04:30;101328.09;;;26.78;55.33
75192;BME280;63771;52.580;9.734;2023-06-22T11:06:55;101329.94;;;26.80;55.09
75192;BME280;63771;52.580;9.734;2023-06-22T11:09:21;101325.66;;;26.84;54.37
75192;BME280;63771;52.580;9.734;2023-06-22T11:11:47;101323.94;;;26.86;53.81
75192;BME280;63771;52.580;9.734;2023-06-22T11:14:13;101326.59;;;26.88;53.49
75192;BME280;63771;52.580;9.734;2023-06-22T11:16:38;101317.06;;;26.90;54.41
75192;BME280;63771;52.580;9.734;2023-06-22T11:19:04;101323.31;;;26.95;54.50
75192;BME280;63771;52.580;9.734;2023-06-22T11:21:30;101322.47;;;26.97;53.60
75192;BME280;63771;52.580;9.734;2023-06-22T11:23:56;101317.38;;;27.03;54.21
75192;BME280;63771;52.580;9.734;2023-06-22T11:26:21;101312.22;;;27.06;53.47
75192;BME280;63771;52.580;9.734;2023-06-22T11:28:46;101308.88;;;27.11;53.31
75192;BME280;63771;52.580;9.734;2023-06-22T11:31:12;101311.63;;;27.15;53.55
75192;BME280;63771;52.580;9.734;2023-06-22T11:33:37;101311.75;;;27.21;54.08
75192;BME280;63771;52.580;9.734;2023-06-22T11:36:03;101303.91;;;27.21;53.06
75192;BME280;63771;52.580;9.734;2023-06-22T11:38:28;101304.00;;;27.26;53.32
75192;BME280;63771;52.580;9.734;2023-06-22T11:40:54;101297.03;;;27.28;53.60
75192;BME280;63771;52.580;9.734;2023-06-22T11:43:19;101296.25;;;27.30;53.49
75192;BME280;63771;52.580;9.734;2023-06-22T11:45:44;101293.69;;;27.35;53.71
75192;BME280;63771;52.580;9.734;2023-06-22T11:48:10;101284.19;;;27.39;53.59
75192;BME280;63771;52.580;9.734;2023-06-22T11:50:35;101282.56;;;27.45;54.08
75192;BME280;63771;52.580;9.734;2023-06-22T11:53:02;101281.78;;;27.49;51.51
75192;BME280;63771;52.580;9.734;2023-06-22T11:55:27;101281.88;;;27.52;51.94
75192;BME280;63771;52.580;9.734;2023-06-22T11:57:55;101283.66;;;27.55;52.39
75192;BME280;63771;52.580;9.734;2023-06-22T12:00:21;101275.88;;;27.58;52.53
75192;BME280;63771;52.580;9.734;2023-06-22T12:02:48;101269.66;;;27.53;50.48
75192;BME280;63771;52.580;9.734;2023-06-22T12:05:14;101264.38;;;27.51;50.29
75192;BME280;63771;52.580;9.734;2023-06-22T12:07:39;101268.75;;;27.52;50.69
75192;BME280;63771;52.580;9.734;2023-06-22T12:10:05;101262.59;;;27.50;50.91
75192;BME280;63771;52.580;9.734;2023-06-22T12:12:30;101259.13;;;27.51;51.53
75192;BME280;63771;52.580;9.734;2023-06-22T12:14:55;101246.06;;;27.54;52.64
75192;BME280;63771;52.580;9.734;2023-06-22T12:17:21;101244.38;;;27.56;52.64
75192;BME280;63771;52.580;9.734;2023-06-22T12:19:46;101247.94;;;27.60;52.18
75192;BME280;63771;52.580;9.734;2023-06-22T12:22:11;101228.50;;;27.50;49.83
75192;BME280;63771;52.580;9.734;2023-06-22T12:24:37;101224.19;;;27.52;50.03
75192;BME280;63771;52.580;9.734;2023-06-22T12:27:03;101224.19;;;27.52;50.92
75192;BME280;63771;52.580;9.734;2023-06-22T12:29:29;101224.28;;;27.57;51.22
75192;BME280;63771;52.580;9.734;2023-06-22T12:31:54;101223.47;;;27.61;52.48
75192;BME280;63771;52.580;9.734;2023-06-22T12:34:19;101219.25;;;27.68;52.85
75192;BME280;63771;52.580;9.734;2023-06-22T12:36:45;101221.19;;;27.75;50.87
75192;BME280;63771;52.580;9.734;2023-06-22T12:39:12;101217.78;;;27.79;50.90
75192;BME280;63771;52.580;9.734;2023-06-22T12:41:37;101216.88;;;27.78;50.53
75192;BME280;63771;52.580;9.734;2023-06-22T12:44:03;101208.16;;;27.79;48.87
75192;BME280;63771;52.580;9.734;2023-06-22T12:46:28;101212.41;;;27.73;49.43
75192;BME280;63771;52.580;9.734;2023-06-22T12:48:55;101214.09;;;27.71;48.91